createdAt,value
2022-10-17T00:03:49.449Z,95.00
2022-10-17T00:08:52.566Z,94.98
2022-10-17T00:13:56.989Z,94.97
2022-10-17T00:19:00.813Z,94.98
2022-10-17T00:24:05.148Z,94.98
2022-10-17T00:29:08.289Z,94.99
2022-10-17T00:34:11.357Z,95.04
2022-10-17T00:39:14.468Z,95.04
2022-10-17T00:44:29.858Z,95.08
2022-10-17T00:49:36.240Z,95.10
2022-10-17T00:54:46.208Z,95.13
2022-10-17T00:59:53.714Z,95.12
2022-10-17T01:04:59.691Z,95.13
2022-10-17T01:10:03.919Z,95.15
2022-10-17T01:15:44.197Z,95.19
2022-10-17T01:21:28.572Z,95.31
2022-10-17T01:26:57.276Z,95.41
2022-10-17T01:32:05.707Z,95.35
2022-10-17T01:37:21.930Z,95.37
2022-10-17T01:42:38.643Z,95.42
2022-10-17T01:47:42.989Z,95.54
2022-10-17T01:52:51.408Z,95.57
2022-10-17T01:58:00.761Z,95.62
2022-10-17T02:03:10.292Z,95.68
2022-10-17T02:08:13.862Z,95.71
2022-10-17T02:13:35.394Z,95.76
2022-10-17T02:18:51.794Z,95.78
2022-10-17T02:24:13.019Z,95.82
2022-10-17T02:29:21.141Z,95.90
2022-10-17T02:34:35.105Z,95.93
2022-10-17T02:39:39.874Z,95.93
2022-10-17T02:44:45.842Z,95.99
2022-10-17T02:49:55.090Z,96.01
2022-10-17T02:55:00.733Z,96.02
2022-10-17T03:00:07.936Z,96.04
2022-10-17T03:05:13.513Z,96.06
2022-10-17T03:10:16.911Z,96.05
2022-10-17T03:15:20.535Z,96.08
2022-10-17T03:20:23.636Z,96.10
2022-10-17T03:25:27.355Z,96.13
2022-10-17T03:30:30.561Z,96.19
2022-10-17T03:35:33.669Z,96.22
2022-10-17T03:40:36.778Z,96.24
2022-10-17T03:45:39.884Z,96.26
2022-10-17T03:50:42.987Z,96.28
2022-10-17T03:55:46.100Z,96.29
2022-10-17T04:00:49.404Z,96.29
2022-10-17T04:05:53.019Z,96.30
2022-10-17T04:11:00.435Z,96.30
2022-10-17T04:16:11.054Z,96.33
2022-10-17T04:21:14.213Z,96.37
2022-10-17T04:26:17.421Z,96.42
2022-10-17T04:31:21.785Z,96.48
2022-10-17T04:36:24.964Z,96.51
2022-10-17T04:41:28.275Z,96.52
2022-10-17T04:46:31.277Z,96.52
2022-10-17T04:51:34.395Z,96.51
2022-10-17T04:56:37.490Z,96.50
2022-10-17T05:01:40.603Z,96.51
2022-10-17T05:06:43.905Z,96.52
2022-10-17T05:11:46.908Z,96.57
2022-10-17T05:16:50.116Z,96.61
2022-10-17T05:21:53.230Z,96.64
2022-10-17T05:26:57.043Z,96.68
2022-10-17T05:37:08.376Z,96.78
2022-10-17T05:42:11.585Z,96.79
2022-10-17T05:47:14.690Z,96.80
2022-10-17T05:52:17.805Z,96.85
2022-10-17T05:57:21.411Z,96.88
2022-10-17T06:02:24.579Z,96.93
2022-10-17T06:07:27.827Z,96.92
2022-10-17T06:12:31.059Z,96.90
2022-10-17T06:17:34.449Z,96.82
2022-10-17T06:22:37.453Z,96.69
2022-10-17T06:27:40.614Z,96.64
2022-10-17T06:32:44.277Z,96.44
2022-10-17T06:37:47.383Z,96.13
2022-10-17T06:42:50.596Z,94.59
2022-10-17T06:47:53.801Z,85.88
2022-10-17T06:52:57.007Z,73.76
2022-10-17T06:58:00.431Z,67.84
2022-10-17T07:03:03.500Z,69.29
2022-10-17T07:08:07.352Z,70.47
2022-10-17T07:13:10.454Z,70.86
2022-10-17T07:18:14.585Z,72.61
2022-10-17T07:23:17.687Z,74.92
2022-10-17T07:28:20.691Z,77.15
2022-10-17T07:33:24.208Z,79.06
2022-10-17T07:38:28.468Z,80.44
2022-10-17T07:43:31.511Z,81.37
2022-10-17T07:48:34.956Z,81.65
2022-10-17T07:53:41.771Z,82.27
2022-10-17T07:58:48.916Z,82.79
2022-10-17T08:03:52.773Z,82.86
2022-10-17T08:08:55.981Z,78.53
2022-10-17T08:13:59.497Z,74.52
2022-10-17T08:19:03.874Z,73.32
2022-10-17T08:24:07.146Z,74.57
2022-10-17T08:29:15.279Z,76.05
2022-10-17T08:34:18.679Z,76.35
2022-10-17T08:39:21.787Z,75.91
2022-10-17T08:44:31.059Z,75.23
2022-10-17T08:49:56.468Z,75.05
2022-10-17T08:55:00.091Z,73.89
2022-10-17T09:00:03.186Z,66.73
2022-10-17T09:05:26.747Z,59.03
2022-10-17T09:10:42.270Z,49.56
2022-10-17T09:16:05.139Z,42.29
2022-10-17T09:21:33.743Z,38.03
2022-10-17T09:26:39.735Z,35.76
2022-10-17T09:31:49.493Z,35.07
2022-10-17T09:36:53.502Z,34.36
2022-10-17T09:41:59.317Z,34.47
2022-10-17T09:47:06.984Z,35.06
2022-10-17T09:52:37.020Z,37.47
2022-10-17T09:57:52.209Z,42.23
2022-10-17T10:03:16.615Z,44.81
2022-10-17T10:08:20.231Z,47.00
2022-10-17T10:13:27.596Z,49.83
2022-10-17T10:18:36.482Z,52.03
2022-10-17T10:23:45.019Z,53.48
2022-10-17T10:29:32.462Z,55.20
2022-10-17T10:34:37.817Z,56.08
2022-10-17T10:39:48.498Z,57.26
2022-10-17T10:44:52.832Z,58.33
2022-10-17T10:50:18.056Z,59.58
2022-10-17T10:55:30.073Z,59.74
2022-10-17T11:00:37.441Z,59.88
2022-10-17T11:05:46.826Z,60.23
2022-10-17T11:11:04.065Z,60.93
2022-10-17T11:16:40.481Z,61.17
2022-10-17T11:21:58.821Z,60.88
2022-10-17T11:27:05.589Z,60.65
2022-10-17T11:32:24.912Z,60.28
2022-10-17T11:37:36.087Z,60.54
2022-10-17T11:42:58.347Z,60.76
2022-10-17T11:48:06.774Z,61.19
2022-10-17T11:53:28.924Z,61.89
2022-10-17T11:58:41.661Z,62.44
2022-10-17T12:04:44.834Z,62.73
2022-10-17T12:10:23.508Z,63.55
2022-10-17T12:15:26.624Z,64.02
2022-10-17T12:20:32.801Z,64.20
2022-10-17T12:30:56.005Z,64.72
2022-10-17T12:36:34.438Z,65.22
2022-10-17T12:41:39.185Z,65.61
2022-10-17T12:46:46.285Z,66.53
2022-10-17T12:52:27.681Z,65.66
2022-10-17T12:57:49.120Z,65.42
2022-10-17T13:02:55.342Z,65.64
2022-10-17T13:08:01.167Z,65.48
2022-10-17T13:13:13.179Z,66.21
2022-10-17T13:18:23.651Z,66.58
2022-10-17T13:23:35.471Z,66.86
2022-10-17T13:28:39.665Z,66.61
2022-10-17T13:33:43.219Z,67.26
2022-10-17T13:38:47.242Z,68.56
2022-10-17T13:43:51.849Z,69.55
2022-10-17T13:48:55.093Z,70.10
2022-10-17T13:53:58.917Z,70.40
2022-10-17T13:59:18.124Z,70.59
2022-10-17T14:04:21.610Z,70.72
2022-10-17T14:09:29.122Z,70.17
2022-10-17T14:14:46.402Z,70.36
2022-10-17T14:20:16.094Z,70.90
2022-10-17T14:25:49.504Z,70.81
2022-10-17T14:30:57.558Z,71.25
2022-10-17T14:36:02.811Z,71.41
2022-10-17T14:46:38.072Z,72.15
2022-10-17T14:51:56.521Z,72.59
2022-10-17T14:57:22.991Z,73.27
2022-10-17T15:02:28.854Z,74.08
2022-10-17T15:07:33.608Z,74.05
2022-10-17T15:12:37.020Z,74.48
2022-10-17T15:17:40.456Z,75.30
2022-10-17T15:22:43.710Z,75.76
2022-10-17T15:27:46.963Z,76.21
2022-10-17T15:32:50.983Z,76.36
2022-10-17T15:37:55.023Z,76.96
2022-10-17T15:42:58.647Z,78.07
2022-10-17T15:48:06.991Z,78.84
2022-10-17T15:53:14.051Z,79.69
2022-10-17T15:58:19.750Z,79.47
2022-10-17T16:03:23.550Z,80.39
2022-10-17T16:08:26.851Z,80.39
2022-10-17T16:13:30.777Z,81.02
2022-10-17T16:18:35.520Z,82.04
2022-10-17T16:23:38.851Z,82.18
2022-10-17T16:28:46.231Z,82.16
2022-10-17T16:33:53.455Z,82.33
2022-10-17T16:38:57.157Z,82.75
2022-10-17T16:44:03.691Z,82.79
2022-10-17T16:49:08.398Z,82.85
2022-10-17T16:54:11.902Z,82.96
2022-10-17T16:59:15.211Z,82.85
2022-10-17T17:04:19.350Z,82.60
2022-10-17T17:09:22.859Z,83.11
2022-10-17T17:14:26.781Z,83.80
2022-10-17T17:19:30.917Z,83.67
2022-10-17T17:24:34.787Z,83.73
2022-10-17T17:29:38.761Z,82.86
2022-10-17T17:34:42.173Z,82.39
2022-10-17T17:39:46.410Z,82.69
2022-10-17T17:44:50.161Z,81.98
2022-10-17T17:49:53.745Z,82.36
2022-10-17T17:54:56.950Z,81.63
2022-10-17T18:00:00.061Z,81.82
2022-10-17T18:05:04.289Z,81.59
2022-10-17T18:10:09.520Z,81.13
2022-10-17T18:15:14.290Z,81.03
2022-10-17T18:20:17.806Z,80.87
2022-10-17T18:25:21.024Z,80.67
2022-10-17T18:30:27.134Z,80.87
2022-10-17T18:35:34.983Z,80.77
2022-10-17T18:40:41.474Z,81.12
2022-10-17T18:45:44.909Z,80.85
2022-10-17T18:50:48.333Z,80.53
2022-10-17T18:55:52.045Z,80.38
2022-10-17T19:00:55.659Z,80.72
2022-10-17T19:06:08.063Z,80.72
2022-10-17T19:11:15.796Z,80.64
2022-10-17T19:16:25.290Z,80.53
2022-10-17T19:21:28.457Z,80.63
2022-10-17T19:26:35.441Z,80.72
2022-10-17T19:31:40.131Z,80.73
2022-10-17T19:36:44.350Z,81.06
2022-10-17T19:41:49.479Z,81.03
2022-10-17T19:46:53.404Z,81.34
2022-10-17T19:51:56.847Z,81.08
2022-10-17T19:57:01.310Z,81.02
2022-10-17T20:02:05.857Z,81.26
2022-10-17T20:07:10.126Z,81.45
2022-10-17T20:12:13.336Z,81.48
2022-10-17T20:17:16.649Z,81.22
2022-10-17T20:22:21.517Z,81.34
2022-10-17T20:27:27.698Z,81.64
2022-10-17T20:32:39.493Z,81.66
2022-10-17T20:37:43.856Z,81.77
2022-10-17T20:42:47.227Z,81.57
2022-10-17T20:47:54.047Z,81.40
2022-10-17T20:53:17.728Z,81.24
2022-10-17T20:58:20.915Z,81.41
2022-10-17T21:03:24.945Z,81.52
2022-10-17T21:08:28.151Z,81.35
2022-10-17T21:13:31.257Z,81.58
2022-10-17T21:18:34.565Z,82.04
2022-10-17T21:23:38.695Z,82.55
2022-10-17T21:28:43.753Z,82.23
2022-10-17T21:33:49.492Z,82.35
2022-10-17T21:38:54.905Z,82.32
2022-10-17T21:44:04.533Z,82.56
2022-10-17T21:49:07.987Z,83.33
2022-10-17T21:54:11.874Z,83.59
2022-10-17T21:59:14.974Z,82.97
2022-10-17T22:04:19.617Z,83.10
2022-10-17T22:09:25.219Z,83.27
2022-10-17T22:14:28.493Z,83.74
2022-10-17T22:19:31.906Z,84.01
2022-10-17T22:24:35.017Z,84.44
2022-10-17T22:29:39.858Z,84.84
2022-10-17T22:34:42.963Z,84.98
2022-10-17T22:39:46.272Z,84.83
2022-10-17T22:44:50.096Z,83.95
2022-10-17T22:49:53.098Z,83.56
2022-10-17T22:54:56.055Z,83.96
2022-10-17T22:59:59.413Z,83.38
2022-10-17T23:05:02.630Z,84.34
2022-10-17T23:10:07.092Z,84.80
2022-10-17T23:15:10.881Z,84.75
2022-10-17T23:20:14.088Z,84.60
2022-10-17T23:25:17.500Z,85.09
2022-10-17T23:30:20.918Z,85.44
2022-10-17T23:35:24.021Z,85.91
2022-10-17T23:40:27.534Z,86.19
2022-10-17T23:45:35.964Z,86.30
2022-10-17T23:50:40.095Z,86.86
2022-10-17T23:55:43.302Z,86.99
